This is the latest recevied weather packets stored in our database for station/object IQ5KG. If no packets are shown the sender has not sent any weather packets the latest 10 day(s).
| Time | Temp. | Humidity | Pressure | Rain* | Wind** | Luminosity | Snow |
|---|---|---|---|---|---|---|---|
| 1777450603 | 17.78° C | 65% | 1016.6 hPa | 0 mm | - | - | - |
| 1777449702 | 16.67° C | 68% | 1016.7 hPa | 0 mm | - | - | - |
| 1777448801 | 16.11° C | 70% | 1016.7 hPa | 0 mm | - | - | - |
| 1777447903 | 15.56° C | 72% | 1016.5 hPa | 0 mm | - | - | - |
| 1777447001 | 15.56° C | 71% | 1016.5 hPa | 0 mm | - | - | - |
| 1777446103 | 16.11° C | 69% | 1016.4 hPa | 0 mm | - | - | - |
| 1777445202 | 15° C | 72% | 1016.4 hPa | 0 mm | - | - | - |
| 1777444301 | 13.89° C | 73% | 1016.4 hPa | 0 mm | - | - | - |
| 1777443402 | 15.56° C | 68% | 1016.2 hPa | 0 mm | - | - | - |
| 1777442500 | 13.33° C | 69% | 1016.3 hPa | 0 mm | - | - | - |
| 1777441600 | 13.89° C | 71% | 1016.3 hPa | 0 mm | - | - | - |
| 1777440701 | 12.78° C | 72% | 1016.4 hPa | 0 mm | - | - | - |
| 1777439801 | 13.33° C | 73% | 1016.2 hPa | 0 mm | - | - | - |
| 1777438901 | 11.67° C | 77% | 1016 hPa | 0 mm | - | - | - |
| 1777438001 | 11.67° C | 76% | 1015.8 hPa | 0 mm | - | - | - |
| 1777437102 | 11.11° C | 73% | 1015.7 hPa | 0 mm | - | - | - |
| 1777436200 | 11.67° C | 75% | 1015.7 hPa | 0 mm | - | - | - |
| 1777435301 | 11.11° C | 76% | 1015.8 hPa | 0 mm | - | - | - |
| 1777434401 | 11.11° C | 74% | 1015.9 hPa | 0 mm | - | - | - |
| 1777433500 | 11.11° C | 72% | 1015.8 hPa | 0 mm | - | - | - |
| 1777432599 | 11.11° C | 70% | 1016.1 hPa | 0 mm | - | - | - |
| 1777431701 | 11.11° C | 70% | 1016.1 hPa | 0 mm | - | - | - |
| 1777430801 | 11.67° C | 68% | 1016 hPa | 0 mm | - | - | - |
| 1777429901 | 12.78° C | 67% | 1015.9 hPa | 0 mm | - | - | - |
| 1777429001 | 12.22° C | 67% | 1015.9 hPa | 0 mm | - | - | - |
* Rain latest hour (hover to see other rain measurements)
** Current wind speed in m/s (hover to see current wind gust speed)